Time;durP1;ratioP1;P1;durP2;ratioP2;P2;SDS_P1;SDS_P2;PMS_P1;PMS_P2;Temp;Humidity;BMP_temperature;BMP_pressure;BME280_temperature;BME280_humidity;BME280_pressure;Samples;Min_cycle;Max_cycle;Signal;HPM_P1;HPM_P2
2023/09/15 00:02:15;;;;;;;7.07;2.83;;;;;;;;;;5079064;28;20501;-71
2023/09/15 00:05:55;;;;;;;5.97;2.63;;;;;;;;;;5083660;28;20131;-69
2023/09/15 00:09:36;;;;;;;4.55;2.45;;;;;;;;;;5079466;28;20183;-69
2023/09/15 00:13:17;;;;;;;5.03;2.40;;;;;;;;;;5076800;28;20919;-70
2023/09/15 00:16:57;;;;;;;6.22;2.55;;;;;;;;;;5087475;28;20044;-68
2023/09/15 00:20:38;;;;;;;9.52;3.63;;;;;;;;;;5078653;28;20032;-71
2023/09/15 00:24:18;;;;;;;10.55;3.92;;;;;;;;;;5077741;28;20124;-67
2023/09/15 00:27:58;;;;;;;8.68;3.88;;;;;;;;;;5076839;28;20544;-68
2023/09/15 00:31:38;;;;;;;10.35;3.70;;;;;;;;;;5084191;28;20047;-68
2023/09/15 00:35:19;;;;;;;10.82;3.83;;;;;;;;;;5081395;28;20101;-71
2023/09/15 00:39:01;;;;;;;10.02;3.90;;;;;;;;;;5076483;28;20074;-68
2023/09/15 00:42:39;;;;;;;7.93;3.80;;;;;;;;;;5084273;28;20064;-73
2023/09/15 00:46:20;;;;;;;6.32;3.80;;;;;;;;;;5078281;28;21394;-69
2023/09/15 00:50:00;;;;;;;11.15;4.03;;;;;;;;;;5081308;28;20040;-69
2023/09/15 00:53:47;;;;;;;8.73;4.07;;;;;;;;;;5081466;28;20047;-69
2023/09/15 00:57:27;;;;;;;9.00;4.15;;;;;;;;;;5080796;28;20463;-68
2023/09/15 01:01:08;;;;;;;10.82;3.97;;;;;;;;;;5073607;28;20042;-68
2023/09/15 01:04:48;;;;;;;5.82;4.03;;;;;;;;;;5086698;28;20104;-67
2023/09/15 01:08:29;;;;;;;9.35;4.10;;;;;;;;;;5076088;28;20539;-71
2023/09/15 01:12:10;;;;;;;11.52;4.25;;;;;;;;;;5079044;28;20036;-68
2023/09/15 01:15:50;;;;;;;9.13;3.95;;;;;;;;;;5084046;28;20068;-67
2023/09/15 01:19:00;;;;;;;6.43;2.92;;;;;;;;;;5082495;28;20416;-68
2023/09/15 01:22:35;;;;;;;9.85;3.22;;;;;;;;;;5078058;28;20922;-69
2023/09/15 01:26:15;;;;;;;8.23;3.05;;;;;;;;;;5081921;28;20075;-68
2023/09/15 01:30:05;;;;;;;7.18;3.03;;;;;;;;;;5086476;28;20383;-68
2023/09/15 01:33:45;;;;;;;12.82;3.25;;;;;;;;;;5082652;28;20431;-71
2023/09/15 01:37:26;;;;;;;7.78;3.28;;;;;;;;;;5079709;28;20037;-67
2023/09/15 01:41:06;;;;;;;8.32;2.90;;;;;;;;;;5082957;28;20127;-67
2023/09/15 01:44:46;;;;;;;8.15;2.80;;;;;;;;;;5070898;28;20160;-69
2023/09/15 01:48:27;;;;;;;11.45;3.10;;;;;;;;;;5078744;28;20055;-67
2023/09/15 01:52:07;;;;;;;6.43;2.97;;;;;;;;;;5080326;28;20200;-72
2023/09/15 01:55:48;;;;;;;6.53;2.92;;;;;;;;;;5081640;28;20464;-68
2023/09/15 01:59:28;;;;;;;10.43;4.55;;;;;;;;;;5087553;28;20056;-68
2023/09/15 02:03:08;;;;;;;11.38;4.32;;;;;;;;;;5085134;28;20151;-68
2023/09/15 02:06:49;;;;;;;9.18;3.63;;;;;;;;;;5077013;28;20515;-67
2023/09/15 02:10:29;;;;;;;8.95;3.33;;;;;;;;;;5073590;28;20519;-67
2023/09/15 02:14:10;;;;;;;11.20;3.47;;;;;;;;;;5080063;28;20044;-66
2023/09/15 02:17:51;;;;;;;7.50;2.90;;;;;;;;;;5079652;28;20492;-67
2023/09/15 02:21:33;;;;;;;7.68;2.90;;;;;;;;;;5082431;28;20050;-67
2023/09/15 02:25:14;;;;;;;8.35;2.58;;;;;;;;;;5085129;28;20044;-67
2023/09/15 02:28:54;;;;;;;6.60;2.67;;;;;;;;;;5078597;28;20488;-67
2023/09/15 02:32:35;;;;;;;8.85;2.85;;;;;;;;;;5084667;28;20108;-67
2023/09/15 02:36:16;;;;;;;6.93;2.67;;;;;;;;;;5082565;28;20086;-68
2023/09/15 02:39:56;;;;;;;7.55;2.90;;;;;;;;;;5079331;28;20561;-67
2023/09/15 02:43:36;;;;;;;8.77;2.90;;;;;;;;;;5083492;28;20052;-68
2023/09/15 02:47:17;;;;;;;5.38;2.60;;;;;;;;;;5087634;28;20411;-68
2023/09/15 02:51:00;;;;;;;8.85;2.83;;;;;;;;;;5086282;28;20049;-67
2023/09/15 02:54:42;;;;;;;7.28;2.80;;;;;;;;;;5082231;28;20040;-69
2023/09/15 02:58:22;;;;;;;7.65;2.80;;;;;;;;;;5077758;28;20053;-68
2023/09/15 03:02:03;;;;;;;8.50;2.83;;;;;;;;;;5081235;28;20178;-71
2023/09/15 03:05:43;;;;;;;7.70;2.95;;;;;;;;;;5042824;28;20099;-70
2023/09/15 03:09:24;;;;;;;5.65;2.70;;;;;;;;;;5046464;28;20068;-68
2023/09/15 03:13:05;;;;;;;5.78;2.50;;;;;;;;;;5035416;28;20055;-73
2023/09/15 03:16:51;;;;;;;6.20;2.70;;;;;;;;;;5041388;28;20373;-67
2023/09/15 03:20:30;;;;;;;4.70;2.42;;;;;;;;;;5040112;28;20052;-68
2023/09/15 03:24:11;;;;;;;4.07;2.38;;;;;;;;;;5043569;28;20039;-68
2023/09/15 03:27:53;;;;;;;5.32;2.45;;;;;;;;;;5033845;28;20511;-67
2023/09/15 03:31:31;;;;;;;9.32;2.70;;;;;;;;;;5037745;28;20044;-68
2023/09/15 03:35:12;;;;;;;5.18;2.30;;;;;;;;;;5039594;28;20087;-68
2023/09/15 03:38:52;;;;;;;7.95;2.75;;;;;;;;;;5045673;28;20124;-67
2023/09/15 03:42:33;;;;;;;5.82;2.05;;;;;;;;;;5043549;28;20124;-67
2023/09/15 03:46:13;;;;;;;7.82;2.28;;;;;;;;;;5041486;28;20040;-68
2023/09/15 03:49:55;;;;;;;5.78;2.40;;;;;;;;;;5036855;28;20048;-68
2023/09/15 03:53:35;;;;;;;11.38;2.50;;;;;;;;;;5036429;28;20064;-68
2023/09/15 03:57:15;;;;;;;4.90;2.38;;;;;;;;;;5035444;28;20238;-69
2023/09/15 04:00:56;;;;;;;8.68;2.50;;;;;;;;;;5037249;28;20175;-69
2023/09/15 04:03:56;;;;;;;9.18;2.63;;;;;;;;;;5065122;28;20075;-68
2023/09/15 04:06:22;;;;;;;6.82;2.50;;;;;;;;;;5086640;28;20036;-68
2023/09/15 04:08:48;;;;;;;6.85;2.72;;;;;;;;;;5083803;28;20139;-69
2023/09/15 04:11:14;;;;;;;5.07;2.38;;;;;;;;;;5077587;28;20056;-68
2023/09/15 04:13:41;;;;;;;7.20;2.60;;;;;;;;;;5087793;28;20187;-68
2023/09/15 04:16:08;;;;;;;6.28;2.25;;;;;;;;;;5082030;28;20517;-68
2023/09/15 04:18:34;;;;;;;8.10;2.33;;;;;;;;;;5088156;28;20044;-69
2023/09/15 04:21:02;;;;;;;6.47;2.25;;;;;;;;;;5080676;28;20117;-68
2023/09/15 04:24:07;;;;;;;6.57;2.42;;;;;;;;;;5078404;28;20052;-68
2023/09/15 04:27:48;;;;;;;6.32;2.33;;;;;;;;;;5086963;28;20515;-67
2023/09/15 04:31:28;;;;;;;5.68;2.30;;;;;;;;;;5077916;28;20089;-67
2023/09/15 04:35:09;;;;;;;6.93;2.40;;;;;;;;;;5083929;28;20089;-69
2023/09/15 04:38:10;;;;;;;8.77;2.78;;;;;;;;;;5077493;28;20032;-76
2023/09/15 04:40:36;;;;;;;6.90;3.00;;;;;;;;;;5088507;28;20075;-75
2023/09/15 04:43:02;;;;;;;10.70;3.33;;;;;;;;;;5079303;28;20048;-71
2023/09/15 04:45:28;;;;;;;12.30;3.38;;;;;;;;;;5083216;28;20052;-72
2023/09/15 04:47:55;;;;;;;14.00;2.95;;;;;;;;;;5079491;28;20044;-72
2023/09/15 04:50:22;;;;;;;11.27;3.50;;;;;;;;;;5079268;28;20460;-73
2023/09/15 04:53:27;;;;;;;9.85;3.28;;;;;;;;;;5079952;28;20066;-73
2023/09/15 04:57:08;;;;;;;9.68;3.05;;;;;;;;;;5085209;28;20050;-75
2023/09/15 05:00:12;;;;;;;11.95;3.17;;;;;;;;;;5079946;28;20503;-75
2023/09/15 05:02:42;;;;;;;9.02;3.20;;;;;;;;;;5080089;28;20193;-73
2023/09/15 05:05:08;;;;;;;8.98;3.33;;;;;;;;;;5085846;28;20086;-69
2023/09/15 05:07:34;;;;;;;15.50;5.47;;;;;;;;;;5087011;28;20063;-64
2023/09/15 05:10:00;;;;;;;17.88;5.80;;;;;;;;;;5081745;28;20051;-66
2023/09/15 05:12:27;;;;;;;11.77;4.00;;;;;;;;;;5081957;28;20072;-67
2023/09/15 05:14:52;;;;;;;11.85;4.47;;;;;;;;;;5079942;28;20101;-69
2023/09/15 05:17:19;;;;;;;7.25;3.50;;;;;;;;;;5080258;28;20062;-67
2023/09/15 05:19:47;;;;;;;11.25;4.57;;;;;;;;;;5087299;28;20056;-67
2023/09/15 05:22:13;;;;;;;9.65;4.15;;;;;;;;;;5077750;28;20385;-72
2023/09/15 05:24:39;;;;;;;8.35;3.63;;;;;;;;;;5083784;28;20058;-69
2023/09/15 05:27:05;;;;;;;9.10;3.90;;;;;;;;;;5085414;28;20514;-70
2023/09/15 05:29:31;;;;;;;9.75;4.18;;;;;;;;;;5076583;28;20048;-71
2023/09/15 05:31:57;;;;;;;9.98;4.10;;;;;;;;;;5084530;28;20056;-69
2023/09/15 05:34:24;;;;;;;7.97;4.30;;;;;;;;;;5077722;28;20206;-71
2023/09/15 05:36:52;;;;;;;10.10;4.85;;;;;;;;;;5080539;28;20048;-69
2023/09/15 05:39:19;;;;;;;12.05;4.65;;;;;;;;;;5081895;28;20044;-71
2023/09/15 05:42:24;;;;;;;11.18;5.32;;;;;;;;;;5067915;28;20052;-67
2023/09/15 05:46:05;;;;;;;10.48;4.70;;;;;;;;;;5072393;28;20772;-63
2023/09/15 05:49:45;;;;;;;12.00;4.28;;;;;;;;;;5083238;28;20044;-70
2023/09/15 05:53:25;;;;;;;10.00;4.20;;;;;;;;;;5079707;28;20510;-67
2023/09/15 05:57:06;;;;;;;8.00;4.05;;;;;;;;;;5076524;28;20057;-71
2023/09/15 06:00:46;;;;;;;11.63;4.25;;;;;;;;;;5079424;28;20438;-72
2023/09/15 06:04:28;;;;;;;13.23;4.65;;;;;;;;;;5089273;28;20055;-76
2023/09/15 06:08:22;;;;;;;11.43;4.70;;;;;;;;;;5084132;28;20059;-75
2023/09/15 06:12:03;;;;;;;10.30;4.70;;;;;;;;;;5082174;28;20102;-75
2023/09/15 06:15:44;;;;;;;12.45;4.70;;;;;;;;;;5081412;28;20052;-75
2023/09/15 06:18:45;;;;;;;10.80;4.03;;;;;;;;;;5073807;28;20646;-76
2023/09/15 06:21:13;;;;;;;8.60;4.20;;;;;;;;;;5080337;28;20071;-73
2023/09/15 06:23:39;;;;;;;11.55;4.43;;;;;;;;;;5079147;28;20052;-73
2023/09/15 06:26:09;;;;;;;8.63;3.83;;;;;;;;;;5083457;28;20060;-73
2023/09/15 06:28:35;;;;;;;8.48;3.65;;;;;;;;;;5078002;28;20059;-74
2023/09/15 06:31:02;;;;;;;12.23;4.45;;;;;;;;;;5077132;28;20048;-74
2023/09/15 06:33:29;;;;;;;11.02;4.13;;;;;;;;;;5074126;28;20044;-77
2023/09/15 06:36:01;;;;;;;12.75;4.38;;;;;;;;;;5079264;28;20075;-73
2023/09/15 06:38:27;;;;;;;12.68;4.20;;;;;;;;;;5083710;28;20091;-71
2023/09/15 06:40:54;;;;;;;11.85;4.10;;;;;;;;;;5081477;28;20040;-69
2023/09/15 06:43:21;;;;;;;8.82;3.88;;;;;;;;;;5074116;28;20496;-69
2023/09/15 06:45:48;;;;;;;10.55;4.40;;;;;;;;;;5075955;28;20059;-73
2023/09/15 06:48:14;;;;;;;9.23;4.05;;;;;;;;;;5086742;28;20052;-69
2023/09/15 06:50:40;;;;;;;9.57;3.47;;;;;;;;;;5076040;28;20063;-70
2023/09/15 06:53:06;;;;;;;9.07;4.03;;;;;;;;;;5088177;28;20044;-70
2023/09/15 06:55:33;;;;;;;9.18;3.75;;;;;;;;;;5083212;28;20054;-71
2023/09/15 06:57:59;;;;;;;13.02;3.70;;;;;;;;;;5087769;28;20453;-70
2023/09/15 07:00:26;;;;;;;7.15;3.58;;;;;;;;;;5084267;28;20036;-68
2023/09/15 07:02:52;;;;;;;7.95;4.10;;;;;;;;;;5086592;28;20047;-68
2023/09/15 07:05:18;;;;;;;10.32;4.07;;;;;;;;;;5077889;28;20123;-67
2023/09/15 07:07:44;;;;;;;10.23;4.22;;;;;;;;;;5079173;28;20727;-73
2023/09/15 07:10:10;;;;;;;9.90;4.35;;;;;;;;;;5076832;28;20091;-75
2023/09/15 07:12:36;;;;;;;8.77;4.15;;;;;;;;;;5077263;28;20051;-72
2023/09/15 07:15:04;;;;;;;12.85;5.18;;;;;;;;;;5083159;28;20059;-67
2023/09/15 07:17:30;;;;;;;14.88;6.38;;;;;;;;;;5083747;28;20459;-71
2023/09/15 07:19:56;;;;;;;12.15;6.20;;;;;;;;;;5087462;28;20044;-72
2023/09/15 07:23:03;;;;;;;13.68;5.50;;;;;;;;;;5083812;28;20051;-71
2023/09/15 07:26:45;;;;;;;15.90;5.68;;;;;;;;;;5082550;28;20044;-68
2023/09/15 07:30:27;;;;;;;14.23;4.88;;;;;;;;;;5085955;28;20079;-77
2023/09/15 07:34:07;;;;;;;16.88;3.70;;;;;;;;;;5085334;28;20130;-68
2023/09/15 07:37:48;;;;;;;13.60;3.65;;;;;;;;;;5082507;28;20104;-66
2023/09/15 07:41:28;;;;;;;8.20;2.50;;;;;;;;;;5085311;28;20609;-70
2023/09/15 07:45:08;;;;;;;9.48;2.88;;;;;;;;;;5073328;28;20535;-70
2023/09/15 07:48:48;;;;;;;9.50;2.90;;;;;;;;;;5086777;28;20057;-74
2023/09/15 07:52:32;;;;;;;7.95;2.70;;;;;;;;;;5079797;28;20113;-73
2023/09/15 07:56:14;;;;;;;9.65;3.15;;;;;;;;;;5081561;28;20066;-73
2023/09/15 07:59:54;;;;;;;11.65;2.95;;;;;;;;;;5076715;28;20400;-70
2023/09/15 08:03:35;;;;;;;14.80;3.30;;;;;;;;;;5076606;28;20492;-69
2023/09/15 08:07:15;;;;;;;11.73;3.42;;;;;;;;;;5080205;28;20093;-70
2023/09/15 08:10:56;;;;;;;12.35;2.95;;;;;;;;;;5077817;28;20079;-61
2023/09/15 08:14:36;;;;;;;5.65;2.50;;;;;;;;;;5086596;28;20467;-67
2023/09/15 08:18:16;;;;;;;7.55;2.15;;;;;;;;;;5086636;28;20070;-69
2023/09/15 08:22:00;;;;;;;6.28;2.42;;;;;;;;;;5085094;28;20506;-72
2023/09/15 08:25:38;;;;;;;4.40;1.73;;;;;;;;;;5081216;28;20059;-70
2023/09/15 08:29:20;;;;;;;4.15;1.77;;;;;;;;;;5073773;28;20373;-72
2023/09/15 08:32:24;;;;;;;4.60;1.70;;;;;;;;;;5083789;28;20032;-70
2023/09/15 08:34:53;;;;;;;4.10;1.90;;;;;;;;;;5089577;28;20083;-70
2023/09/15 08:37:20;;;;;;;5.03;1.65;;;;;;;;;;5083859;28;20056;-73
2023/09/15 08:39:50;;;;;;;5.22;2.05;;;;;;;;;;5083163;28;20068;-72
2023/09/15 08:42:29;;;;;;;5.00;2.08;;;;;;;;;;5076159;28;20441;-71
2023/09/15 08:44:57;;;;;;;5.55;2.20;;;;;;;;;;5073063;28;20472;-72
2023/09/15 08:47:27;;;;;;;5.97;1.73;;;;;;;;;;5086142;28;20472;-70
2023/09/15 08:49:55;;;;;;;4.15;1.70;;;;;;;;;;5086650;28;20060;-74
2023/09/15 08:52:22;;;;;;;2.88;1.60;;;;;;;;;;5088305;28;20066;-74
2023/09/15 08:54:50;;;;;;;5.65;1.88;;;;;;;;;;5089836;28;20040;-72
2023/09/15 08:57:16;;;;;;;3.72;1.70;;;;;;;;;;5087609;28;20060;-74
2023/09/15 08:59:44;;;;;;;9.55;2.17;;;;;;;;;;5083635;28;20051;-73
2023/09/15 09:02:12;;;;;;;3.83;1.75;;;;;;;;;;5076922;28;20055;-73
2023/09/15 09:04:39;;;;;;;6.90;2.33;;;;;;;;;;5072715;28;20062;-73
2023/09/15 09:07:05;;;;;;;6.60;2.20;;;;;;;;;;5080248;28;20754;-72
2023/09/15 09:09:32;;;;;;;6.13;3.08;;;;;;;;;;5085150;28;20048;-74
2023/09/15 09:11:58;;;;;;;6.10;2.40;;;;;;;;;;5089905;28;20118;-73
2023/09/15 09:14:25;;;;;;;7.35;2.38;;;;;;;;;;5086151;28;20040;-75
2023/09/15 09:16:53;;;;;;;17.23;4.65;;;;;;;;;;5077823;28;20109;-70
2023/09/15 09:19:23;;;;;;;11.43;3.15;;;;;;;;;;5089048;28;20089;-70
2023/09/15 09:22:00;;;;;;;7.10;2.70;;;;;;;;;;5081529;28;20884;-70
2023/09/15 09:24:27;;;;;;;8.30;2.65;;;;;;;;;;5087015;28;20461;-71
2023/09/15 09:26:54;;;;;;;7.05;2.70;;;;;;;;;;5082174;28;20496;-70
2023/09/15 09:29:28;;;;;;;6.38;2.42;;;;;;;;;;5085010;28;20048;-70
2023/09/15 09:31:54;;;;;;;9.07;2.72;;;;;;;;;;5085415;28;20136;-70
2023/09/15 09:34:21;;;;;;;9.35;2.47;;;;;;;;;;5085528;28;20149;-71
2023/09/15 09:36:49;;;;;;;5.78;2.60;;;;;;;;;;5085633;28;20048;-74
2023/09/15 09:39:16;;;;;;;4.40;2.45;;;;;;;;;;5085909;28;20085;-71
2023/09/15 09:41:44;;;;;;;5.90;2.72;;;;;;;;;;5075371;28;20170;-70
2023/09/15 09:44:12;;;;;;;7.50;2.53;;;;;;;;;;5086676;28;20677;-74
2023/09/15 09:46:41;;;;;;;8.27;3.00;;;;;;;;;;5082441;28;20549;-73
2023/09/15 09:49:09;;;;;;;6.78;3.03;;;;;;;;;;5082354;28;20044;-73
2023/09/15 09:51:35;;;;;;;6.45;2.50;;;;;;;;;;5058340;28;20066;-73
2023/09/15 09:54:08;;;;;;;7.35;3.40;;;;;;;;;;5080242;28;20051;-72
2023/09/15 09:56:35;;;;;;;9.35;3.83;;;;;;;;;;5084556;28;20051;-75
2023/09/15 09:59:11;;;;;;;10.55;3.97;;;;;;;;;;5083502;28;20062;-74
2023/09/15 10:01:37;;;;;;;11.57;4.60;;;;;;;;;;5081031;28;20558;-73
2023/09/15 10:04:06;;;;;;;9.93;4.25;;;;;;;;;;5078811;28;20106;-73
2023/09/15 10:06:37;;;;;;;11.63;4.53;;;;;;;;;;5075890;28;20048;-73
2023/09/15 10:09:07;;;;;;;10.43;4.72;;;;;;;;;;5087286;28;20044;-76
2023/09/15 10:11:34;;;;;;;9.20;4.88;;;;;;;;;;5086694;28;20064;-74
2023/09/15 10:14:02;;;;;;;9.30;4.60;;;;;;;;;;5087894;28;20710;-75
2023/09/15 10:16:30;;;;;;;12.38;4.97;;;;;;;;;;5089224;28;20040;-76
2023/09/15 10:19:02;;;;;;;9.02;4.43;;;;;;;;;;5084939;28;20492;-75
2023/09/15 10:21:32;;;;;;;11.60;4.93;;;;;;;;;;5093526;28;20068;-75
2023/09/15 10:24:07;;;;;;;9.18;5.03;;;;;;;;;;5072506;28;20100;-77
2023/09/15 10:26:39;;;;;;;11.40;4.85;;;;;;;;;;5087350;28;20165;-75
2023/09/15 10:29:05;;;;;;;7.93;3.95;;;;;;;;;;5081524;28;20070;-75
2023/09/15 10:31:35;;;;;;;8.88;4.32;;;;;;;;;;5088577;28;20040;-74
2023/09/15 10:34:07;;;;;;;8.43;4.22;;;;;;;;;;5087897;28;20051;-76
2023/09/15 10:36:33;;;;;;;12.00;4.43;;;;;;;;;;5086206;28;20048;-75
2023/09/15 10:39:19;;;;;;;9.80;4.00;;;;;;;;;;5086758;28;20050;-76
2023/09/15 10:41:45;;;;;;;8.23;3.97;;;;;;;;;;5086801;28;20048;-76
2023/09/15 10:44:12;;;;;;;8.40;4.20;;;;;;;;;;5084765;28;20397;-74
2023/09/15 10:46:40;;;;;;;12.90;4.38;;;;;;;;;;5081953;28;20052;-76
2023/09/15 10:49:14;;;;;;;9.15;3.83;;;;;;;;;;5090132;28;20052;-74
2023/09/15 10:52:02;;;;;;;7.03;3.22;;;;;;;;;;5087597;28;20561;-76
2023/09/15 10:54:34;;;;;;;6.85;2.72;;;;;;;;;;5090331;28;20067;-75
2023/09/15 10:57:04;;;;;;;7.20;3.28;;;;;;;;;;5067266;28;20123;-73
2023/09/15 10:59:33;;;;;;;8.32;3.20;;;;;;;;;;5092574;28;20526;-74
2023/09/15 11:01:59;;;;;;;7.45;3.45;;;;;;;;;;5087588;28;20107;-73
2023/09/15 11:04:28;;;;;;;9.05;3.50;;;;;;;;;;5093937;28;20075;-71
2023/09/15 11:06:55;;;;;;;6.57;2.90;;;;;;;;;;5091302;28;20058;-74
2023/09/15 11:09:21;;;;;;;7.72;3.40;;;;;;;;;;5093593;28;20043;-74
2023/09/15 11:11:49;;;;;;;6.45;3.30;;;;;;;;;;5089243;28;20120;-72
2023/09/15 11:14:16;;;;;;;6.03;3.00;;;;;;;;;;5087127;28;20044;-72
2023/09/15 11:16:49;;;;;;;7.90;3.28;;;;;;;;;;5089855;28;20070;-74
2023/09/15 11:19:19;;;;;;;7.00;3.10;;;;;;;;;;5090979;28;20048;-72
2023/09/15 11:21:47;;;;;;;5.00;2.83;;;;;;;;;;5091715;28;20101;-74
2023/09/15 11:24:15;;;;;;;6.22;2.70;;;;;;;;;;5091767;28;20578;-76
2023/09/15 11:26:49;;;;;;;7.43;4.00;;;;;;;;;;5086567;28;20272;-73
2023/09/15 11:29:33;;;;;;;10.35;3.92;;;;;;;;;;5088720;28;20040;-73
2023/09/15 11:32:01;;;;;;;5.78;3.50;;;;;;;;;;5083069;28;20048;-74
2023/09/15 11:34:31;;;;;;;9.63;3.80;;;;;;;;;;5079017;28;20040;-74
2023/09/15 11:36:59;;;;;;;4.88;3.50;;;;;;;;;;5082690;28;20474;-74
2023/09/15 11:39:28;;;;;;;5.40;3.50;;;;;;;;;;5087942;28;20055;-71
2023/09/15 11:41:55;;;;;;;8.30;3.95;;;;;;;;;;5090975;28;20264;-73
2023/09/15 11:44:26;;;;;;;7.82;3.75;;;;;;;;;;5087982;28;20044;-73
2023/09/15 11:46:55;;;;;;;7.20;3.88;;;;;;;;;;5082310;28;20081;-71
2023/09/15 11:49:22;;;;;;;8.80;4.05;;;;;;;;;;5087940;28;20067;-70
2023/09/15 11:51:50;;;;;;;8.60;4.05;;;;;;;;;;5089588;28;20056;-71
2023/09/15 11:54:18;;;;;;;9.43;4.32;;;;;;;;;;5079496;28;20122;-71
2023/09/15 11:56:44;;;;;;;8.68;3.92;;;;;;;;;;5084896;28;20052;-70
2023/09/15 11:59:12;;;;;;;5.28;3.53;;;;;;;;;;5088829;28;20048;-73
2023/09/15 12:01:40;;;;;;;8.65;3.75;;;;;;;;;;5087015;28;20472;-72
2023/09/15 12:04:08;;;;;;;9.48;3.88;;;;;;;;;;5083196;28;20053;-73
2023/09/15 12:06:35;;;;;;;8.73;4.03;;;;;;;;;;5083027;28;20051;-72
2023/09/15 12:09:02;;;;;;;10.05;4.18;;;;;;;;;;5082815;28;20066;-72
2023/09/15 12:11:29;;;;;;;6.60;3.30;;;;;;;;;;5088877;28;20140;-73
2023/09/15 12:13:56;;;;;;;11.15;6.38;;;;;;;;;;5085697;28;20059;-71
2023/09/15 12:16:28;;;;;;;7.25;4.35;;;;;;;;;;5083333;28;20459;-71
2023/09/15 12:18:59;;;;;;;9.13;4.18;;;;;;;;;;5080702;28;20054;-72
2023/09/15 12:21:28;;;;;;;8.35;4.28;;;;;;;;;;5082122;28;20110;-77
2023/09/15 12:24:07;;;;;;;6.38;3.90;;;;;;;;;;5083861;28;20040;-73
2023/09/15 12:26:32;;;;;;;7.80;4.03;;;;;;;;;;5088441;28;20545;-73
2023/09/15 12:29:00;;;;;;;5.88;3.40;;;;;;;;;;5083494;28;20036;-73
2023/09/15 12:31:27;;;;;;;4.90;2.83;;;;;;;;;;5081692;28;20047;-72
2023/09/15 12:33:56;;;;;;;6.25;2.78;;;;;;;;;;5084577;28;20136;-72
2023/09/15 12:36:22;;;;;;;7.32;2.75;;;;;;;;;;5084227;28;20051;-73
2023/09/15 12:38:50;;;;;;;5.78;2.97;;;;;;;;;;5079161;28;20184;-71
2023/09/15 12:41:17;;;;;;;6.30;3.22;;;;;;;;;;5079576;28;20041;-73
2023/09/15 12:43:43;;;;;;;7.22;3.17;;;;;;;;;;5090617;28;20052;-72
2023/09/15 12:46:10;;;;;;;8.45;3.00;;;;;;;;;;5089851;28;20185;-72
2023/09/15 12:48:39;;;;;;;8.10;3.38;;;;;;;;;;5090591;28;20519;-72
2023/09/15 12:51:06;;;;;;;8.65;3.10;;;;;;;;;;5089949;28;20052;-72
2023/09/15 12:53:33;;;;;;;8.43;3.60;;;;;;;;;;5081118;28;20070;-71
2023/09/15 12:56:00;;;;;;;6.15;3.40;;;;;;;;;;5072788;28;20056;-69
2023/09/15 12:58:28;;;;;;;8.82;3.38;;;;;;;;;;5091326;28;20139;-72
2023/09/15 13:00:55;;;;;;;8.98;3.85;;;;;;;;;;5087494;28;20123;-71
2023/09/15 13:03:25;;;;;;;8.73;3.70;;;;;;;;;;5079523;28;20056;-73
2023/09/15 13:05:53;;;;;;;6.00;2.95;;;;;;;;;;5085747;28;20044;-72
2023/09/15 13:08:19;;;;;;;8.20;2.80;;;;;;;;;;5079496;28;21257;-73
2023/09/15 13:10:46;;;;;;;4.15;2.35;;;;;;;;;;5082326;28;20052;-71
2023/09/15 13:13:14;;;;;;;3.58;2.60;;;;;;;;;;5079880;28;20068;-73
2023/09/15 13:15:40;;;;;;;9.27;2.78;;;;;;;;;;5082462;28;20511;-70
2023/09/15 13:18:06;;;;;;;5.75;2.80;;;;;;;;;;5077753;28;20261;-74
2023/09/15 13:20:32;;;;;;;5.38;2.67;;;;;;;;;;5087221;28;20517;-73
2023/09/15 13:23:00;;;;;;;3.67;2.38;;;;;;;;;;5085912;28;20476;-73
2023/09/15 13:25:26;;;;;;;3.95;2.20;;;;;;;;;;5076620;28;20063;-71
2023/09/15 13:27:53;;;;;;;11.75;2.72;;;;;;;;;;5082387;28;20246;-72
2023/09/15 13:30:20;;;;;;;5.05;2.88;;;;;;;;;;5079815;28;20086;-74
2023/09/15 13:32:46;;;;;;;6.55;2.72;;;;;;;;;;5080100;28;20487;-70
2023/09/15 13:35:12;;;;;;;5.28;2.63;;;;;;;;;;5078331;28;20070;-71
2023/09/15 13:37:42;;;;;;;6.30;2.72;;;;;;;;;;5083361;28;20112;-72
2023/09/15 13:40:11;;;;;;;5.07;2.58;;;;;;;;;;5086906;28;20044;-72
2023/09/15 13:42:39;;;;;;;6.28;2.47;;;;;;;;;;5080013;28;20147;-73
2023/09/15 13:45:06;;;;;;;3.55;2.40;;;;;;;;;;5078516;28;20074;-74
2023/09/15 13:47:35;;;;;;;7.93;2.83;;;;;;;;;;5081775;28;20048;-72
2023/09/15 13:50:02;;;;;;;6.03;2.42;;;;;;;;;;5081941;28;20058;-75
2023/09/15 13:52:32;;;;;;;5.45;2.45;;;;;;;;;;5084980;28;20060;-73
2023/09/15 13:54:59;;;;;;;5.72;2.45;;;;;;;;;;5087205;28;20516;-73
2023/09/15 13:57:26;;;;;;;5.72;2.50;;;;;;;;;;5069148;28;20040;-73
2023/09/15 13:59:53;;;;;;;5.28;2.45;;;;;;;;;;5083721;28;20451;-71
2023/09/15 14:02:26;;;;;;;4.47;2.40;;;;;;;;;;5077750;28;20052;-72
2023/09/15 14:04:52;;;;;;;6.43;2.70;;;;;;;;;;5075722;28;20135;-73
2023/09/15 14:07:18;;;;;;;6.30;2.47;;;;;;;;;;5082058;28;20097;-73
2023/09/15 14:09:44;;;;;;;5.60;2.67;;;;;;;;;;5086105;28;20438;-74
2023/09/15 14:12:11;;;;;;;4.70;2.30;;;;;;;;;;5084394;28;20131;-73
2023/09/15 14:14:37;;;;;;;4.05;2.22;;;;;;;;;;5080045;28;20114;-73
2023/09/15 14:17:06;;;;;;;6.55;2.42;;;;;;;;;;5080131;28;20050;-74
2023/09/15 14:19:33;;;;;;;3.85;2.20;;;;;;;;;;5068708;28;20048;-73
2023/09/15 14:21:59;;;;;;;7.00;2.35;;;;;;;;;;5087672;28;20048;-72
2023/09/15 14:24:26;;;;;;;5.03;2.42;;;;;;;;;;5083584;28;20048;-75
2023/09/15 14:26:53;;;;;;;4.25;2.40;;;;;;;;;;5071280;28;20444;-73
2023/09/15 14:29:19;;;;;;;4.97;2.40;;;;;;;;;;5084930;28;20044;-73
2023/09/15 14:31:45;;;;;;;8.88;2.92;;;;;;;;;;5087422;28;20048;-75
2023/09/15 14:34:13;;;;;;;8.02;2.25;;;;;;;;;;5074723;28;20356;-73
2023/09/15 14:36:39;;;;;;;6.38;2.40;;;;;;;;;;5078452;28;20063;-75
2023/09/15 14:39:07;;;;;;;6.10;2.47;;;;;;;;;;5081268;28;20048;-75
2023/09/15 14:41:34;;;;;;;6.85;2.47;;;;;;;;;;5080302;28;20250;-71
2023/09/15 14:44:00;;;;;;;7.10;2.53;;;;;;;;;;5085195;28;20052;-76
2023/09/15 14:46:26;;;;;;;4.93;2.67;;;;;;;;;;5085954;28;20070;-72
2023/09/15 14:48:52;;;;;;;5.55;2.20;;;;;;;;;;5085046;28;20230;-72
2023/09/15 14:52:00;;;;;;;5.80;2.53;;;;;;;;;;5077728;28;20499;-72
2023/09/15 14:55:26;;;;;;;9.48;2.60;;;;;;;;;;5076783;28;20090;-73
2023/09/15 14:57:57;;;;;;;6.57;2.85;;;;;;;;;;5072605;28;20491;-72
2023/09/15 15:00:23;;;;;;;5.53;2.92;;;;;;;;;;5076356;28;20116;-72
2023/09/15 15:02:49;;;;;;;6.35;2.90;;;;;;;;;;5072545;28;20181;-74
2023/09/15 15:05:16;;;;;;;5.38;2.92;;;;;;;;;;5077756;28;20040;-72
2023/09/15 15:07:42;;;;;;;5.82;2.90;;;;;;;;;;5073951;28;20071;-73
2023/09/15 15:10:48;;;;;;;6.05;2.72;;;;;;;;;;5086340;28;20048;-71
2023/09/15 15:14:28;;;;;;;4.60;2.58;;;;;;;;;;5067371;28;20044;-70
2023/09/15 15:18:09;;;;;;;5.15;3.10;;;;;;;;;;5071588;28;20179;-71
2023/09/15 15:21:49;;;;;;;7.43;2.63;;;;;;;;;;5064820;27;20062;-70
2023/09/15 15:25:29;;;;;;;8.93;2.47;;;;;;;;;;5081023;28;20122;-72
2023/09/15 15:29:10;;;;;;;4.65;2.50;;;;;;;;;;5078031;28;20496;-73
2023/09/15 15:32:51;;;;;;;9.30;3.20;;;;;;;;;;5073133;28;20056;-72
2023/09/15 15:36:38;;;;;;;8.23;2.58;;;;;;;;;;5075928;28;20058;-72
2023/09/15 15:40:17;;;;;;;8.50;2.97;;;;;;;;;;5073984;28;20158;-71
2023/09/15 15:43:58;;;;;;;7.15;2.67;;;;;;;;;;5070203;28;20032;-74
2023/09/15 15:47:38;;;;;;;9.70;3.22;;;;;;;;;;5062872;28;20581;-70
2023/09/15 15:51:20;;;;;;;9.43;3.50;;;;;;;;;;5072399;28;20087;-75
2023/09/15 15:55:00;;;;;;;11.93;3.30;;;;;;;;;;5063428;28;20872;-74
2023/09/15 15:58:41;;;;;;;8.32;3.85;;;;;;;;;;5066567;28;20052;-74
2023/09/15 16:02:21;;;;;;;9.27;3.85;;;;;;;;;;5073332;28;20384;-76
2023/09/15 16:06:03;;;;;;;6.97;4.25;;;;;;;;;;5070869;28;20490;-74
2023/09/15 16:09:09;;;;;;;8.73;4.93;;;;;;;;;;5069088;28;20415;-74
2023/09/15 16:11:41;;;;;;;10.77;4.65;;;;;;;;;;5077133;28;20061;-75
2023/09/15 16:14:10;;;;;;;10.07;4.40;;;;;;;;;;5075358;28;20569;-75
2023/09/15 16:16:37;;;;;;;8.93;4.40;;;;;;;;;;5074892;28;20145;-75
2023/09/15 16:19:03;;;;;;;8.77;4.82;;;;;;;;;;5075548;28;20040;-76
2023/09/15 16:21:33;;;;;;;11.88;4.35;;;;;;;;;;5066045;28;20589;-71
2023/09/15 16:24:01;;;;;;;8.57;3.58;;;;;;;;;;5068455;28;20052;-72
2023/09/15 16:26:29;;;;;;;10.38;3.65;;;;;;;;;;5078161;28;20067;-73
2023/09/15 16:28:55;;;;;;;6.60;2.58;;;;;;;;;;5072822;28;20496;-76
2023/09/15 16:31:33;;;;;;;7.20;2.45;;;;;;;;;;5074497;28;20138;-74
2023/09/15 16:33:59;;;;;;;11.55;2.47;;;;;;;;;;5070990;28;20048;-71
2023/09/15 16:36:26;;;;;;;4.88;1.80;;;;;;;;;;5072071;28;20060;-71
2023/09/15 16:38:56;;;;;;;8.25;2.25;;;;;;;;;;5069957;28;20048;-76
2023/09/15 16:41:27;;;;;;;10.13;1.77;;;;;;;;;;5070385;28;20060;-79
2023/09/15 16:43:54;;;;;;;6.72;1.83;;;;;;;;;;5075028;28;20091;-75
2023/09/15 16:46:21;;;;;;;6.50;1.92;;;;;;;;;;5071372;28;20056;-76
2023/09/15 16:48:49;;;;;;;8.63;2.10;;;;;;;;;;5076852;28;20587;-75
2023/09/15 16:51:56;;;;;;;7.05;1.95;;;;;;;;;;5064388;28;20048;-75
2023/09/15 16:55:37;;;;;;;7.88;1.90;;;;;;;;;;5073293;28;20040;-75
2023/09/15 16:59:18;;;;;;;5.50;1.98;;;;;;;;;;5072820;28;20058;-75
2023/09/15 17:03:01;;;;;;;8.40;2.05;;;;;;;;;;5067848;28;20040;-73
2023/09/15 17:06:42;;;;;;;6.40;1.88;;;;;;;;;;5072352;28;20106;-75
2023/09/15 17:10:23;;;;;;;8.18;1.58;;;;;;;;;;5068962;28;20049;-76
2023/09/15 17:14:04;;;;;;;6.93;1.75;;;;;;;;;;5072142;28;20136;-71
2023/09/15 17:17:45;;;;;;;7.07;2.15;;;;;;;;;;5082068;28;20051;-75